Time;durP1;ratioP1;P1;durP2;ratioP2;P2;SDS_P1;SDS_P2;PMS_P1;PMS_P2;Temp;Humidity;BMP_temperature;BMP_pressure;BME280_temperature;BME280_humidity;BME280_pressure;Samples;Min_cycle;Max_cycle;Signal;HPM_P1;HPM_P2
2023/05/23 00:01:08;;;;;;;7.43;4.00;;;;;;;16.97;46.82;100594.25;4960293;29;20047;-67
2023/05/23 00:03:36;;;;;;;9.98;4.38;;;;;;;16.84;47.03;100592.34;4960170;29;20514;-68
2023/05/23 00:06:05;;;;;;;11.57;4.38;;;;;;;16.80;47.03;100587.53;4960853;29;20043;-67
2023/05/23 00:08:32;;;;;;;9.13;4.38;;;;;;;16.68;47.39;100590.03;4971941;28;20113;-67
2023/05/23 00:10:58;;;;;;;9.70;4.35;;;;;;;16.63;47.76;100581.66;4979912;28;20113;-67
2023/05/23 00:13:25;;;;;;;13.15;4.72;;;;;;;16.82;47.85;100578.19;4979488;28;20106;-67
2023/05/23 00:15:52;;;;;;;8.65;4.57;;;;;;;16.75;47.77;100584.59;4979549;28;20039;-67
2023/05/23 00:18:18;;;;;;;10.32;4.28;;;;;;;16.63;47.78;100581.66;4979923;28;20060;-68
2023/05/23 00:20:45;;;;;;;10.50;4.70;;;;;;;16.58;48.18;100576.88;4978240;28;20047;-67
2023/05/23 00:23:17;;;;;;;9.27;4.03;;;;;;;16.29;48.58;100575.25;4979793;28;20074;-67
2023/05/23 00:25:47;;;;;;;8.52;4.35;;;;;;;16.14;49.14;100567.28;4979511;28;20114;-67
2023/05/23 00:28:14;;;;;;;6.40;3.88;;;;;;;16.25;48.81;100567.75;4978255;28;20050;-67
2023/05/23 00:30:41;;;;;;;11.02;4.20;;;;;;;16.17;49.41;100566.03;4979646;28;20047;-67
2023/05/23 00:33:08;;;;;;;11.60;3.95;;;;;;;16.18;49.42;100563.13;4979375;28;20062;-68
2023/05/23 00:35:35;;;;;;;10.65;4.35;;;;;;;16.21;49.30;100569.19;4979496;28;20047;-68
2023/05/23 00:38:02;;;;;;;10.32;4.47;;;;;;;16.02;49.67;100571.59;4979054;28;20054;-68
2023/05/23 00:40:28;;;;;;;10.82;4.35;;;;;;;15.91;49.90;100559.44;4978825;28;20051;-68
2023/05/23 00:42:55;;;;;;;5.85;3.83;;;;;;;15.84;50.18;100566.69;4979214;28;20097;-67
2023/05/23 00:45:22;;;;;;;6.82;4.43;;;;;;;15.80;50.37;100559.16;4979439;28;20129;-67
2023/05/23 00:47:50;;;;;;;12.45;4.68;;;;;;;15.84;50.48;100563.13;4979563;28;20511;-66
2023/05/23 00:50:16;;;;;;;7.00;4.30;;;;;;;15.68;50.74;100556.19;4980121;28;20046;-67
2023/05/23 00:52:44;;;;;;;10.80;4.15;;;;;;;15.68;50.86;100557.03;4980210;28;20050;-66
2023/05/23 00:55:12;;;;;;;13.43;4.63;;;;;;;15.49;51.42;100550.41;4979290;28;20097;-67
2023/05/23 00:57:39;;;;;;;8.05;4.05;;;;;;;15.71;51.03;100555.81;4978709;28;20435;-68
2023/05/23 01:00:11;;;;;;;13.70;4.28;;;;;;;15.52;51.56;100545.63;4979008;28;20042;-68
2023/05/23 01:02:45;;;;;;;11.52;4.20;;;;;;;15.61;51.58;100545.28;4978316;28;20110;-67
2023/05/23 01:09:01;;;;;;;10.63;4.05;;;;;;;15.43;52.56;100542.22;4977637;28;20102;-68
2023/05/23 01:11:37;;;;;;;7.10;4.40;;;;;;;15.59;52.08;100550.06;4978719;28;20047;-69
2023/05/23 01:14:10;;;;;;;12.00;4.38;;;;;;;15.54;52.26;100544.41;4961789;28;20047;-68
2023/05/23 01:16:50;;;;;;;12.13;4.35;;;;;;;15.41;52.63;100533.50;4978947;28;20491;-66
2023/05/23 01:19:26;;;;;;;7.20;4.38;;;;;;;15.46;52.69;100531.84;4979333;28;20074;-68
2023/05/23 01:21:58;;;;;;;8.63;4.05;;;;;;;15.51;52.70;100534.00;4977964;28;20566;-66
2023/05/23 01:24:54;;;;;;;7.07;4.53;;;;;;;15.29;53.37;100538.59;4977866;28;20054;-67
2023/05/23 01:27:40;;;;;;;7.70;4.15;;;;;;;15.24;53.75;100530.25;4978592;28;20054;-67
2023/05/23 01:30:09;;;;;;;10.75;4.72;;;;;;;15.47;53.09;100538.97;4965862;28;20391;-66
2023/05/23 01:32:37;;;;;;;9.30;4.70;;;;;;;15.36;53.44;100541.34;4958843;28;20102;-66
2023/05/23 01:35:04;;;;;;;12.20;4.90;;;;;;;15.52;53.23;100532.94;4958389;29;20611;-67
2023/05/23 01:37:31;;;;;;;7.45;4.68;;;;;;;15.55;53.13;100529.84;4959666;29;20062;-66
2023/05/23 01:39:57;;;;;;;10.98;4.82;;;;;;;15.75;52.81;100524.63;4954812;28;20099;-66
2023/05/23 01:42:26;;;;;;;11.25;5.38;;;;;;;15.77;52.77;100517.13;4958246;28;20047;-66
2023/05/23 01:44:53;;;;;;;14.70;4.35;;;;;;;15.73;52.87;100518.56;4957927;28;20043;-66
2023/05/23 01:47:21;;;;;;;9.50;4.35;;;;;;;15.68;53.17;100516.47;4957992;29;20054;-67
2023/05/23 01:49:48;;;;;;;10.55;4.45;;;;;;;15.74;52.91;100517.50;4958185;28;20047;-67
2023/05/23 01:52:15;;;;;;;15.60;4.20;;;;;;;15.52;53.46;100513.19;4956698;29;20051;-67
2023/05/23 01:54:43;;;;;;;8.82;4.70;;;;;;;15.35;53.86;100518.91;4957433;28;20047;-67
2023/05/23 01:57:10;;;;;;;10.05;4.65;;;;;;;15.25;54.38;100510.28;4957676;28;20051;-67
2023/05/23 01:59:37;;;;;;;10.13;4.35;;;;;;;15.39;54.10;100516.63;4957426;28;20054;-67
2023/05/23 02:02:04;;;;;;;10.27;4.43;;;;;;;15.59;53.43;100519.47;4958734;28;20077;-67
2023/05/23 02:04:31;;;;;;;11.35;4.78;;;;;;;15.54;54.04;100525.50;4959204;29;20058;-67
2023/05/23 02:06:58;;;;;;;10.35;4.50;;;;;;;15.59;53.86;100531.13;4958725;29;20079;-67
2023/05/23 02:09:24;;;;;;;8.20;4.50;;;;;;;15.73;53.75;100532.06;4958670;29;20044;-67
2023/05/23 02:11:51;;;;;;;17.67;4.90;;;;;;;15.85;53.50;100535.09;4957817;29;20047;-67
2023/05/23 02:14:18;;;;;;;8.15;4.63;;;;;;;15.90;53.72;100527.19;4958516;29;20059;-67
2023/05/23 02:16:45;;;;;;;9.90;4.10;;;;;;;15.91;53.63;100531.56;4958761;29;20047;-67
2023/05/23 02:19:11;;;;;;;10.10;4.82;;;;;;;15.95;53.12;100530.09;4959164;29;20102;-67
2023/05/23 02:21:38;;;;;;;9.98;4.60;;;;;;;16.01;53.01;100529.31;4959585;28;20112;-68
2023/05/23 02:24:05;;;;;;;14.90;4.70;;;;;;;16.08;53.13;100530.19;4962204;29;20082;-68
2023/05/23 02:26:31;;;;;;;9.90;4.53;;;;;;;16.07;52.89;100524.97;4962822;29;20102;-69
2023/05/23 02:28:58;;;;;;;7.93;4.70;;;;;;;16.06;53.04;100515.22;4963150;29;20130;-67
2023/05/23 02:31:25;;;;;;;10.57;4.28;;;;;;;15.54;53.68;100511.97;4962569;29;20054;-67
2023/05/23 02:33:52;;;;;;;7.90;4.75;;;;;;;15.25;54.66;100511.13;4945754;29;20121;-67
2023/05/23 02:36:19;;;;;;;13.05;4.95;;;;;;;15.34;54.69;100519.09;4963141;29;20098;-67
2023/05/23 02:38:46;;;;;;;16.13;5.05;;;;;;;15.12;55.22;100524.56;4963287;29;20039;-67
2023/05/23 02:41:12;;;;;;;13.45;4.78;;;;;;;15.09;55.55;100511.44;4963536;29;20098;-66
2023/05/23 02:43:39;;;;;;;8.63;4.05;;;;;;;15.27;55.27;100513.66;4962943;29;20054;-67
2023/05/23 02:46:05;;;;;;;11.05;4.63;;;;;;;15.49;55.08;100509.00;4963198;29;20459;-67
2023/05/23 02:48:32;;;;;;;9.07;4.68;;;;;;;15.51;54.76;100509.66;4962923;29;20407;-70
2023/05/23 02:50:59;;;;;;;10.05;4.60;;;;;;;15.53;54.80;100515.69;4963565;29;20049;-67
2023/05/23 02:53:25;;;;;;;8.73;4.70;;;;;;;15.30;54.86;100510.56;4962834;29;20047;-68
2023/05/23 02:55:52;;;;;;;12.40;4.50;;;;;;;15.34;55.22;100511.00;4963421;29;20058;-68
2023/05/23 02:58:19;;;;;;;14.73;4.68;;;;;;;15.43;55.00;100513.34;4962714;29;20047;-67
2023/05/23 03:00:46;;;;;;;10.98;4.35;;;;;;;15.24;55.29;100511.34;4962502;29;20070;-66
2023/05/23 03:03:12;;;;;;;7.15;4.82;;;;;;;15.28;55.50;100511.78;4963425;29;20047;-66
2023/05/23 03:05:39;;;;;;;7.78;4.22;;;;;;;15.45;55.10;100513.97;4962759;29;20043;-68
2023/05/23 03:08:06;;;;;;;9.85;4.78;;;;;;;15.53;54.95;100512.97;4961976;29;20050;-68
2023/05/23 03:10:32;;;;;;;12.20;5.35;;;;;;;15.50;54.86;100510.69;4962427;29;20074;-69
2023/05/23 03:12:59;;;;;;;16.10;5.18;;;;;;;15.39;55.09;100508.53;4962393;29;20093;-66
2023/05/23 03:15:25;;;;;;;8.65;4.85;;;;;;;15.34;55.51;100511.00;4962813;29;20074;-66
2023/05/23 03:17:52;;;;;;;7.13;4.68;;;;;;;15.56;55.13;100514.47;4962205;29;26038;-67
2023/05/23 03:20:18;;;;;;;11.95;4.90;;;;;;;15.43;55.45;100515.19;4961698;29;20644;-66
2023/05/23 03:22:45;;;;;;;10.45;4.25;;;;;;;15.50;55.83;100513.41;4961985;28;20058;-66
2023/05/23 03:25:14;;;;;;;17.90;5.55;;;;;;;15.59;55.99;100512.19;4962487;29;20043;-67
2023/05/23 03:27:40;;;;;;;7.50;4.95;;;;;;;15.34;57.78;100500.19;4960831;29;20483;-66
2023/05/23 03:30:08;;;;;;;11.15;4.82;;;;;;;15.09;58.76;100503.31;4963047;29;20047;-67
2023/05/23 03:32:34;;;;;;;8.30;4.80;;;;;;;14.83;60.58;100492.28;4962988;28;20526;-68
2023/05/23 03:35:01;;;;;;;10.68;4.85;;;;;;;14.88;61.01;100489.84;4963210;29;20528;-67
2023/05/23 03:37:28;;;;;;;14.70;5.65;;;;;;;14.71;61.66;100495.50;4962920;29;20043;-69
2023/05/23 03:39:54;;;;;;;11.52;4.85;;;;;;;14.85;61.69;100484.84;4938524;29;20070;-67
2023/05/23 03:42:20;;;;;;;14.50;5.15;;;;;;;14.80;61.69;100487.25;4941812;28;20050;-68
2023/05/23 03:44:47;;;;;;;14.68;5.25;;;;;;;14.71;62.18;100484.69;4982551;28;20046;-67
2023/05/23 03:47:14;;;;;;;15.38;5.00;;;;;;;14.82;62.95;100482.50;4981964;28;20129;-67
2023/05/23 03:49:40;;;;;;;12.00;5.25;;;;;;;14.61;62.98;100480.63;4981802;28;20491;-67
2023/05/23 03:52:07;;;;;;;13.05;5.15;;;;;;;14.26;64.58;100475.06;4980974;28;20038;-69
2023/05/23 03:54:33;;;;;;;13.57;5.32;;;;;;;14.34;65.52;100468.72;4981418;28;20051;-67
2023/05/23 03:57:00;;;;;;;8.95;4.72;;;;;;;14.81;64.14;100476.28;4981863;28;20055;-67
2023/05/23 03:59:27;;;;;;;14.40;5.20;;;;;;;15.06;63.18;100475.88;4981207;28;20114;-67
2023/05/23 04:01:54;;;;;;;12.88;5.60;;;;;;;14.52;64.56;100478.03;4979927;28;20077;-67
2023/05/23 04:04:20;;;;;;;11.52;5.35;;;;;;;14.73;64.64;100474.53;4979364;28;20066;-67
2023/05/23 04:06:47;;;;;;;12.38;5.47;;;;;;;14.90;63.63;100485.06;4980670;28;20043;-67
2023/05/23 04:09:13;;;;;;;12.40;5.03;;;;;;;15.02;63.48;100497.03;4980872;28;20081;-68
2023/05/23 04:11:40;;;;;;;12.15;5.57;;;;;;;15.17;62.85;100505.88;4979780;28;20043;-68
2023/05/23 04:14:06;;;;;;;13.88;4.82;;;;;;;15.32;62.20;100513.88;4961185;28;20077;-70
2023/05/23 04:16:34;;;;;;;7.65;4.88;;;;;;;15.33;61.47;100517.41;4961628;29;20067;-67
2023/05/23 04:19:03;;;;;;;9.85;5.38;;;;;;;15.37;60.79;100510.59;4960802;29;20124;-67
2023/05/23 04:21:31;;;;;;;11.13;5.15;;;;;;;15.22;60.79;100498.03;4961004;28;20443;-67
2023/05/23 04:23:58;;;;;;;11.23;5.05;;;;;;;15.02;61.57;100497.03;4961613;28;20043;-67
2023/05/23 04:26:24;;;;;;;13.10;5.10;;;;;;;14.92;62.49;100496.53;4961709;28;20511;-67
2023/05/23 04:28:53;;;;;;;18.17;5.35;;;;;;;14.56;63.56;100486.56;4960351;29;20095;-67
2023/05/23 04:31:23;;;;;;;12.32;5.40;;;;;;;14.63;64.53;100490.19;4961665;29;20071;-67
2023/05/23 04:33:50;;;;;;;10.30;5.20;;;;;;;14.57;65.54;100488.28;4960872;29;20416;-68
2023/05/23 04:36:17;;;;;;;14.13;5.50;;;;;;;14.66;65.26;100492.50;4959234;29;20051;-67
2023/05/23 04:38:43;;;;;;;14.65;5.68;;;;;;;14.43;66.57;100486.47;4960741;29;20051;-67
2023/05/23 04:41:10;;;;;;;9.98;5.65;;;;;;;14.70;65.93;100491.09;4960760;29;20047;-67
2023/05/23 04:43:41;;;;;;;15.60;6.00;;;;;;;14.47;66.32;100487.75;4960943;28;20070;-68
2023/05/23 04:46:08;;;;;;;9.07;5.15;;;;;;;14.48;67.15;100495.63;4960772;29;20074;-68
2023/05/23 04:48:37;;;;;;;14.38;5.85;;;;;;;14.51;66.74;100491.72;4960956;29;20071;-66
2023/05/23 04:51:07;;;;;;;10.88;6.07;;;;;;;14.69;65.83;100494.81;4960856;29;20047;-66
2023/05/23 04:53:35;;;;;;;13.18;5.70;;;;;;;14.51;66.79;100489.88;4959792;29;20043;-67
2023/05/23 04:56:02;;;;;;;13.35;6.47;;;;;;;14.83;65.81;100494.97;4971808;28;20058;-67
2023/05/23 04:58:30;;;;;;;20.48;5.90;;;;;;;15.00;65.31;100499.09;4976512;28;20491;-65
2023/05/23 05:00:57;;;;;;;17.67;7.00;;;;;;;15.15;64.69;100491.72;4976781;28;20055;-65
2023/05/23 05:03:25;;;;;;;16.25;6.25;;;;;;;15.19;64.60;100490.31;4976461;28;20061;-65
2023/05/23 05:05:52;;;;;;;8.35;5.18;;;;;;;15.23;64.60;100488.88;4976543;28;20199;-65
2023/05/23 05:08:19;;;;;;;13.65;5.95;;;;;;;15.43;64.11;100490.88;4976008;28;20047;-65
2023/05/23 05:10:45;;;;;;;9.50;5.20;;;;;;;15.46;64.41;100488.59;4975791;28;20474;-65
2023/05/23 05:13:12;;;;;;;12.40;6.13;;;;;;;15.39;63.52;100492.31;4974431;28;20047;-65
2023/05/23 05:15:38;;;;;;;10.27;5.97;;;;;;;15.45;62.73;100486.13;4975344;28;20047;-66
2023/05/23 05:18:05;;;;;;;13.60;6.05;;;;;;;15.48;62.46;100480.31;4957784;28;20077;-66
2023/05/23 05:20:31;;;;;;;12.38;5.50;;;;;;;15.49;62.92;100488.22;4955434;28;20051;-65
2023/05/23 05:23:01;;;;;;;10.57;5.50;;;;;;;15.68;62.63;100497.53;4958781;28;20075;-65
2023/05/23 05:25:31;;;;;;;20.42;5.80;;;;;;;15.70;62.63;100494.59;4955696;29;20071;-66
2023/05/23 05:28:01;;;;;;;15.45;5.47;;;;;;;15.60;63.01;100494.94;4956321;28;20396;-65
2023/05/23 05:30:29;;;;;;;13.20;4.88;;;;;;;15.68;63.08;100499.41;4969676;28;20413;-67
2023/05/23 05:32:56;;;;;;;16.10;5.90;;;;;;;15.76;62.06;100501.09;4974169;28;20416;-65
2023/05/23 05:35:23;;;;;;;12.52;6.20;;;;;;;15.55;63.13;100507.41;4974728;28;20050;-65
2023/05/23 05:37:50;;;;;;;10.32;5.70;;;;;;;15.61;63.50;100512.03;4973896;28;20047;-66
2023/05/23 05:40:16;;;;;;;19.27;6.05;;;;;;;15.66;63.82;100512.28;4972452;28;20575;-66
2023/05/23 05:42:43;;;;;;;9.23;5.13;;;;;;;15.76;64.08;100511.91;4974403;28;20047;-66
2023/05/23 05:45:10;;;;;;;15.30;5.53;;;;;;;15.76;64.38;100506.50;4973599;28;20047;-67
2023/05/23 05:47:37;;;;;;;16.83;5.75;;;;;;;15.81;64.88;100507.59;4971956;28;20051;-67
2023/05/23 05:50:06;;;;;;;17.58;5.68;;;;;;;15.85;66.06;100503.44;4971382;28;20097;-67
2023/05/23 05:52:37;;;;;;;19.30;5.95;;;;;;;15.78;65.85;100491.75;4968185;28;20047;-68
2023/05/23 05:55:10;;;;;;;17.75;6.28;;;;;;;15.71;66.29;100497.13;4972362;28;20038;-67
2023/05/23 05:57:37;;;;;;;11.40;5.78;;;;;;;15.77;66.86;100486.53;4972198;28;20462;-69
2023/05/23 06:00:17;;;;;;;13.05;6.25;;;;;;;15.81;66.83;100495.91;4956221;29;20146;-69
2023/05/23 06:02:50;;;;;;;13.48;6.43;;;;;;;15.69;67.40;100491.06;4975765;28;20043;-68
2023/05/23 06:05:17;;;;;;;18.65;5.70;;;;;;;15.83;67.25;100486.56;4976767;28;20051;-68
2023/05/23 06:07:44;;;;;;;20.85;6.70;;;;;;;15.85;66.70;100484.50;4976279;28;20109;-69
2023/05/23 06:10:13;;;;;;;30.30;6.30;;;;;;;15.79;64.79;100487.19;4976231;28;20495;-68
2023/05/23 06:12:40;;;;;;;13.38;5.47;;;;;;;15.62;65.62;100486.63;4974582;28;20488;-68
2023/05/23 06:15:08;;;;;;;20.75;6.40;;;;;;;15.84;66.24;100487.41;4975258;28;20150;-68
2023/05/23 06:17:34;;;;;;;17.05;6.82;;;;;;;15.88;67.11;100480.53;4974624;28;20042;-68
2023/05/23 06:20:01;;;;;;;13.40;6.93;;;;;;;15.88;69.77;100480.53;4974910;28;20049;-68
2023/05/23 06:22:30;;;;;;;14.40;6.25;;;;;;;15.92;72.05;100479.13;4975509;28;20047;-68
2023/05/23 06:24:56;;;;;;;24.77;6.85;;;;;;;15.88;73.44;100481.41;4972441;28;20082;-72
2023/05/23 06:27:23;;;;;;;13.80;6.32;;;;;;;16.03;74.38;100492.09;4974011;28;20149;-73
2023/05/23 06:29:49;;;;;;;17.67;6.93;;;;;;;16.13;75.52;100492.53;4973936;28;20046;-72
2023/05/23 06:32:16;;;;;;;22.48;6.53;;;;;;;16.46;75.44;100480.97;4974229;28;20046;-70
2023/05/23 06:34:43;;;;;;;11.73;6.38;;;;;;;16.62;74.45;100475.19;4974698;28;20109;-71
2023/05/23 06:37:09;;;;;;;13.77;5.20;;;;;;;16.73;75.05;100484.59;4972718;28;20124;-72
2023/05/23 06:39:36;;;;;;;15.90;6.53;;;;;;;17.00;72.93;100488.16;4974262;28;20525;-73
2023/05/23 06:42:03;;;;;;;22.58;6.82;;;;;;;16.98;71.48;100492.94;4974290;28;20053;-72
2023/05/23 06:44:29;;;;;;;20.00;6.78;;;;;;;17.26;69.99;100489.19;4973020;28;20490;-72
2023/05/23 06:46:57;;;;;;;21.20;6.53;;;;;;;17.35;69.50;100483.38;4973680;28;20105;-72
2023/05/23 06:49:24;;;;;;;21.75;7.20;;;;;;;17.26;69.13;100479.16;4973353;28;20133;-73
2023/05/23 06:51:51;;;;;;;11.82;5.47;;;;;;;17.50;68.46;100485.84;4972955;28;20038;-72
2023/05/23 06:54:18;;;;;;;15.20;6.80;;;;;;;17.65;67.46;100487.47;4972062;28;20110;-73
2023/05/23 06:56:45;;;;;;;16.92;6.55;;;;;;;17.82;65.94;100484.09;4972471;28;20051;-72
2023/05/23 06:59:12;;;;;;;13.23;5.47;;;;;;;17.82;66.73;100488.66;4973314;28;20396;-71
2023/05/23 07:01:38;;;;;;;14.85;6.80;;;;;;;17.75;65.97;100487.84;4973895;28;20451;-72
2023/05/23 07:04:05;;;;;;;16.00;6.03;;;;;;;17.81;65.92;100485.13;4973800;28;20501;-72
2023/05/23 07:06:32;;;;;;;15.38;4.95;;;;;;;18.15;64.94;100485.03;4972902;28;20642;-72
2023/05/23 07:08:58;;;;;;;12.45;5.22;;;;;;;18.15;64.66;100494.00;4972371;28;20047;-72
2023/05/23 07:11:25;;;;;;;18.88;6.00;;;;;;;17.94;65.89;100497.81;4973204;28;20086;-73
2023/05/23 07:13:51;;;;;;;13.73;5.07;;;;;;;17.99;65.60;100491.75;4972286;28;20089;-72
2023/05/23 07:16:18;;;;;;;11.07;5.10;;;;;;;18.05;64.89;100494.44;4973554;28;20111;-72
2023/05/23 07:18:45;;;;;;;15.32;6.07;;;;;;;17.92;65.28;100489.06;4971435;28;20113;-71
2023/05/23 07:21:12;;;;;;;11.70;4.70;;;;;;;18.03;64.38;100499.25;4973278;28;20102;-72
2023/05/23 07:23:39;;;;;;;12.18;5.07;;;;;;;18.09;63.43;100500.25;4973181;28;20101;-70
2023/05/23 07:26:08;;;;;;;12.13;5.10;;;;;;;18.20;62.54;100498.78;4974065;28;20055;-72
2023/05/23 07:28:36;;;;;;;11.73;4.70;;;;;;;18.15;62.73;100495.91;4973565;28;20051;-72
2023/05/23 07:31:03;;;;;;;12.98;5.50;;;;;;;18.23;61.89;100487.50;4954274;28;20067;-74
2023/05/23 07:33:30;;;;;;;13.73;5.30;;;;;;;18.29;61.93;100484.75;4953978;28;20491;-71
2023/05/23 07:35:56;;;;;;;13.23;4.82;;;;;;;18.46;60.87;100484.25;4937144;29;20051;-73
2023/05/23 07:38:23;;;;;;;13.10;5.72;;;;;;;18.73;58.38;100482.19;4953734;28;20098;-73
2023/05/23 07:40:49;;;;;;;9.95;4.65;;;;;;;18.68;59.81;100490.16;4953944;29;20467;-72
2023/05/23 07:43:32;;;;;;;14.70;5.50;;;;;;;18.62;59.62;100493.75;4949931;29;20043;-72
2023/05/23 07:45:59;;;;;;;14.85;4.82;;;;;;;18.63;60.04;100485.38;4953818;29;20487;-73
2023/05/23 07:48:26;;;;;;;14.25;4.95;;;;;;;18.44;61.20;100495.31;4953518;28;20090;-72
2023/05/23 07:50:54;;;;;;;11.57;4.68;;;;;;;18.53;60.71;100494.00;4953561;29;20058;-72
2023/05/23 07:53:21;;;;;;;9.90;5.35;;;;;;;18.55;60.68;100500.06;4953623;28;20110;-74
2023/05/23 07:55:48;;;;;;;16.20;4.82;;;;;;;18.75;60.61;100501.81;4953800;28;20047;-74
2023/05/23 07:58:15;;;;;;;8.98;4.60;;;;;;;18.77;60.56;100500.53;4953153;29;20047;-73
2023/05/23 08:00:43;;;;;;;10.07;5.63;;;;;;;18.86;60.14;100500.25;4953011;28;20392;-73
2023/05/23 08:03:10;;;;;;;11.52;5.47;;;;;;;18.81;60.69;100497.38;4953265;29;20051;-75
2023/05/23 08:05:37;;;;;;;11.80;5.80;;;;;;;18.67;61.53;100502.91;4953388;28;20047;-76
2023/05/23 08:08:04;;;;;;;7.35;4.28;;;;;;;19.02;60.42;100503.31;4952593;28;20043;-75
2023/05/23 08:10:30;;;;;;;15.45;4.72;;;;;;;19.14;60.14;100502.56;4952701;28;20051;-75
2023/05/23 08:12:59;;;;;;;10.13;4.53;;;;;;;19.52;59.28;100499.75;4953167;28;20071;-75
2023/05/23 08:15:27;;;;;;;11.48;5.38;;;;;;;19.70;58.72;100499.78;4953112;28;20062;-74
2023/05/23 08:17:55;;;;;;;8.60;4.68;;;;;;;20.01;58.19;100502.59;4952260;28;20086;-76
2023/05/23 08:20:29;;;;;;;11.20;5.05;;;;;;;20.39;56.93;100505.84;4951859;28;20055;-74
2023/05/23 08:23:00;;;;;;;10.40;4.88;;;;;;;20.49;56.15;100505.34;4951167;28;20050;-74
2023/05/23 08:25:29;;;;;;;13.25;4.43;;;;;;;20.76;55.57;100505.75;4951241;28;20106;-74
2023/05/23 08:27:57;;;;;;;7.68;4.20;;;;;;;21.61;52.75;100507.28;4951921;28;20432;-74
2023/05/23 08:30:24;;;;;;;8.45;4.43;;;;;;;21.51;53.65;100512.53;4966036;28;20047;-75
2023/05/23 08:32:52;;;;;;;9.05;4.38;;;;;;;21.35;53.25;100517.59;4971199;28;20054;-75
2023/05/23 08:35:19;;;;;;;9.65;4.97;;;;;;;21.62;53.24;100519.88;4952747;28;20125;-75
2023/05/23 08:37:45;;;;;;;11.65;4.45;;;;;;;21.71;52.33;100515.72;4952914;29;20070;-74
2023/05/23 08:40:20;;;;;;;13.70;5.10;;;;;;;22.11;52.16;100514.94;4952657;28;20055;-73
2023/05/23 08:42:50;;;;;;;16.27;4.97;;;;;;;21.92;52.01;100517.00;4949786;28;20495;-77
2023/05/23 08:45:17;;;;;;;14.07;4.22;;;;;;;22.14;51.50;100525.38;4952349;29;20081;-76
2023/05/23 08:47:45;;;;;;;10.35;4.55;;;;;;;22.08;51.82;100523.63;4952629;28;20047;-76
2023/05/23 08:50:14;;;;;;;13.73;4.20;;;;;;;22.14;52.21;100530.84;4950901;28;20070;-74
2023/05/23 08:52:55;;;;;;;12.48;4.53;;;;;;;22.14;51.89;100530.84;4952622;28;20491;-76
2023/05/23 08:55:25;;;;;;;8.05;3.83;;;;;;;21.81;53.58;100540.53;4952922;29;20050;-75
2023/05/23 08:57:53;;;;;;;11.95;4.18;;;;;;;21.97;53.46;100535.41;4952584;29;20110;-74
2023/05/23 09:00:21;;;;;;;7.72;4.65;;;;;;;21.49;55.06;100542.75;4952490;28;20059;-75
2023/05/23 09:02:48;;;;;;;14.50;4.68;;;;;;;22.19;53.23;100535.59;4952409;28;20051;-76
2023/05/23 09:05:14;;;;;;;12.73;3.78;;;;;;;22.20;53.70;100549.00;4952512;29;20496;-75
2023/05/23 09:07:46;;;;;;;10.55;4.57;;;;;;;22.62;52.42;100551.50;4952850;29;20054;-75
2023/05/23 09:10:15;;;;;;;11.60;4.50;;;;;;;22.33;53.64;100548.75;4952489;29;20419;-75
2023/05/23 09:12:42;;;;;;;13.65;4.50;;;;;;;22.24;53.74;100547.44;4952449;28;20051;-74
2023/05/23 09:15:10;;;;;;;6.32;3.90;;;;;;;21.91;54.94;100550.00;4952492;29;20106;-74
2023/05/23 09:17:37;;;;;;;11.32;4.43;;;;;;;22.10;54.63;100557.00;4952771;28;20087;-74
2023/05/23 09:20:12;;;;;;;10.43;3.97;;;;;;;22.47;54.23;100559.44;4952280;28;20208;-75
2023/05/23 09:22:39;;;;;;;6.43;4.32;;;;;;;22.82;53.98;100561.19;4952171;28;20387;-73
2023/05/23 09:25:07;;;;;;;10.77;4.65;;;;;;;22.41;54.12;100565.84;4952800;28;20126;-74
2023/05/23 09:27:33;;;;;;;10.05;5.70;;;;;;;22.26;55.16;100571.81;4952658;28;20475;-75
2023/05/23 09:30:08;;;;;;;10.80;4.55;;;;;;;22.08;55.77;100561.84;4962897;28;20110;-73
2023/05/23 09:32:35;;;;;;;12.52;5.32;;;;;;;21.75;57.16;100560.56;4968114;28;20046;-74
2023/05/23 09:35:06;;;;;;;9.57;5.45;;;;;;;22.02;57.41;100568.31;4975549;28;20129;-74
2023/05/23 09:37:42;;;;;;;8.90;5.72;;;;;;;21.69;57.51;100563.44;4975192;28;20047;-74
2023/05/23 09:40:10;;;;;;;8.63;5.18;;;;;;;21.31;59.44;100557.34;4975407;28;20042;-73
2023/05/23 09:42:44;;;;;;;10.77;5.40;;;;;;;21.09;60.43;100567.97;4975799;28;20129;-73
2023/05/23 09:45:15;;;;;;;9.68;6.22;;;;;;;21.24;61.57;100570.28;4975131;28;20093;-73
2023/05/23 09:47:50;;;;;;;9.73;6.07;;;;;;;20.99;61.95;100564.16;4975133;28;20133;-73
2023/05/23 09:50:17;;;;;;;7.63;5.75;;;;;;;20.81;63.51;100565.88;4975218;28;20130;-74
2023/05/23 09:52:45;;;;;;;11.80;6.10;;;;;;;20.46;65.92;100570.38;4975288;28;20112;-74
2023/05/23 09:55:11;;;;;;;8.57;5.85;;;;;;;20.29;67.35;100579.13;4975045;28;20046;-74
2023/05/23 09:57:41;;;;;;;12.93;6.88;;;;;;;20.58;68.92;100568.50;4975218;28;20073;-73
2023/05/23 10:00:10;;;;;;;10.55;6.50;;;;;;;20.63;68.04;100565.94;4975665;28;20471;-74
2023/05/23 10:03:06;;;;;;;15.38;6.47;;;;;;;20.98;67.20;100563.31;4971892;28;20553;-75
2023/05/23 10:05:39;;;;;;;13.32;6.68;;;;;;;21.25;67.14;100561.03;4975295;28;20495;-74
2023/05/23 10:08:14;;;;;;;7.38;6.10;;;;;;;21.54;64.99;100562.00;4975464;28;20388;-74
2023/05/23 10:11:13;;;;;;;10.85;7.20;;;;;;;22.37;62.71;100559.19;4974973;28;20388;-74
2023/05/23 10:13:43;;;;;;;14.90;7.65;;;;;;;22.58;62.21;100561.28;4974669;28;20459;-74
2023/05/23 10:16:19;;;;;;;11.50;6.95;;;;;;;22.40;61.93;100555.97;4974594;28;20130;-73
2023/05/23 10:18:51;;;;;;;10.07;6.88;;;;;;;22.31;64.00;100564.53;4974703;28;20470;-74
2023/05/23 10:21:23;;;;;;;10.10;7.13;;;;;;;21.79;66.31;100572.72;4974197;28;20065;-74
2023/05/23 10:23:50;;;;;;;11.13;7.60;;;;;;;21.56;69.84;100568.06;4974760;28;20047;-73
2023/05/23 10:26:17;;;;;;;10.38;7.30;;;;;;;20.94;72.98;100572.19;4974603;28;20077;-73
2023/05/23 10:28:48;;;;;;;12.13;7.82;;;;;;;20.52;78.04;100577.59;4974749;28;20582;-73
2023/05/23 10:31:16;;;;;;;11.35;7.88;;;;;;;20.20;85.00;100585.91;4974808;28;20070;-73
2023/05/23 10:33:52;;;;;;;11.25;8.05;;;;;;;19.95;90.96;100580.56;4974834;28;20043;-74
2023/05/23 10:36:26;;;;;;;14.25;9.15;;;;;;;20.15;95.45;100588.50;4973627;28;20055;-73
2023/05/23 10:39:01;;;;;;;15.30;9.32;;;;;;;19.98;94.37;100585.56;4974472;28;20071;-73
2023/05/23 10:41:37;;;;;;;17.30;9.13;;;;;;;19.88;100.00;100588.78;4973829;28;21554;-73
2023/05/23 10:44:11;;;;;;;13.73;7.78;;;;;;;20.24;96.10;100583.56;4973326;28;20488;-75
2023/05/23 10:46:57;;;;;;;13.18;7.25;;;;;;;20.08;98.24;100590.47;4974691;28;20388;-74
2023/05/23 10:49:44;;;;;;;11.57;8.45;;;;;;;20.17;100.00;100584.47;4974142;28;20081;-73
2023/05/23 10:52:12;;;;;;;14.43;9.48;;;;;;;20.39;100.00;100590.31;4974401;28;20490;-75
2023/05/23 10:54:49;;;;;;;16.20;7.65;;;;;;;20.29;100.00;100597.38;4974343;28;20046;-72
2023/05/23 10:57:18;;;;;;;14.63;10.18;;;;;;;20.22;100.00;100593.88;4974438;28;20106;-73
2023/05/23 10:59:46;;;;;;;12.93;11.40;;;;;;;20.16;100.00;100595.63;4974323;28;20051;-72
2023/05/23 11:02:14;;;;;;;14.60;10.82;;;;;;;19.68;100.00;100602.59;4974085;28;20051;-73
2023/05/23 11:04:41;;;;;;;14.25;10.60;;;;;;;19.32;100.00;100592.41;4973965;28;20089;-73
2023/05/23 11:07:30;;;;;;;13.57;10.20;;;;;;;19.40;100.00;100596.75;4973891;28;20117;-71
2023/05/23 11:10:04;;;;;;;18.50;10.63;;;;;;;19.45;100.00;100597.75;4973786;28;20098;-74
2023/05/23 11:12:41;;;;;;;14.50;10.60;;;;;;;19.11;100.00;100595.50;4973825;28;20054;-74
2023/05/23 11:15:16;;;;;;;16.25;10.57;;;;;;;19.32;100.00;100600.56;4973698;28;20049;-72
2023/05/23 11:17:50;;;;;;;15.52;11.65;;;;;;;19.12;100.00;100613.47;4973645;28;20043;-73
2023/05/23 11:20:22;;;;;;;21.80;14.23;;;;;;;19.12;100.00;100608.03;4973187;28;20047;-73
2023/05/23 11:23:01;;;;;;;19.58;12.75;;;;;;;18.79;100.00;100609.03;4973383;28;20060;-73
2023/05/23 11:25:46;;;;;;;20.45;14.20;;;;;;;18.83;100.00;100610.28;4973537;28;20058;-73
2023/05/23 11:28:13;;;;;;;15.63;12.88;;;;;;;18.72;100.00;100608.22;4973374;28;20046;-74
2023/05/23 11:30:40;;;;;;;17.38;12.40;;;;;;;18.65;100.00;100613.69;4957443;28;20491;-72